sensor_id;sensor_type;location;lat;lon;timestamp;pressure;altitude;pressure_sealevel;temperature;humidity
58622;BME280;44389;51.578;5.456;2022-12-11T00:00:40;101075.53;;;-1.26;100.00
58622;BME280;44389;51.578;5.456;2022-12-11T00:03:06;101068.72;;;-1.27;100.00
58622;BME280;44389;51.578;5.456;2022-12-11T00:05:31;101067.84;;;-1.27;100.00
58622;BME280;44389;51.578;5.456;2022-12-11T00:07:56;101072.91;;;-1.27;100.00
58622;BME280;44389;51.578;5.456;2022-12-11T00:10:23;101072.91;;;-1.27;100.00
58622;BME280;44389;51.578;5.456;2022-12-11T00:12:48;101064.56;;;-1.26;100.00
58622;BME280;44389;51.578;5.456;2022-12-11T00:15:13;101068.97;;;-1.24;100.00
58622;BME280;44389;51.578;5.456;2022-12-11T00:17:38;101067.19;;;-1.25;100.00
58622;BME280;44389;51.578;5.456;2022-12-11T00:20:04;101058.88;;;-1.24;100.00
58622;BME280;44389;51.578;5.456;2022-12-11T00:22:30;101065.81;;;-1.21;100.00
58622;BME280;44389;51.578;5.456;2022-12-11T00:24:55;101062.38;;;-1.22;100.00
58622;BME280;44389;51.578;5.456;2022-12-11T00:27:20;101061.75;;;-1.19;100.00
58622;BME280;44389;51.578;5.456;2022-12-11T00:29:46;101063.53;;;-1.18;100.00
58622;BME280;44389;51.578;5.456;2022-12-11T00:32:11;101065.19;;;-1.19;100.00
58622;BME280;44389;51.578;5.456;2022-12-11T00:34:36;101063.53;;;-1.18;100.00
58622;BME280;44389;51.578;5.456;2022-12-11T00:37:02;101066.16;;;-1.17;100.00
58622;BME280;44389;51.578;5.456;2022-12-11T00:39:27;101066.16;;;-1.17;100.00
58622;BME280;44389;51.578;5.456;2022-12-11T00:41:52;101067.06;;;-1.16;100.00
58622;BME280;44389;51.578;5.456;2022-12-11T00:44:18;101062.75;;;-1.17;100.00
58622;BME280;44389;51.578;5.456;2022-12-11T00:46:43;101063.75;;;-1.15;100.00
58622;BME280;44389;51.578;5.456;2022-12-11T00:49:08;101060.34;;;-1.16;100.00
58622;BME280;44389;51.578;5.456;2022-12-11T00:51:34;101062.00;;;-1.16;100.00
58622;BME280;44389;51.578;5.456;2022-12-11T00:53:59;101063.75;;;-1.15;100.00
58622;BME280;44389;51.578;5.456;2022-12-11T00:56:24;101063.91;;;-1.13;100.00
58622;BME280;44389;51.578;5.456;2022-12-11T00:58:49;101058.06;;;-1.12;100.00
58622;BME280;44389;51.578;5.456;2022-12-11T01:01:19;101060.47;;;-1.14;100.00
58622;BME280;44389;51.578;5.456;2022-12-11T01:03:45;101053.91;;;-1.12;100.00
58622;BME280;44389;51.578;5.456;2022-12-11T01:06:14;101053.25;;;-1.09;100.00
58622;BME280;44389;51.578;5.456;2022-12-11T01:08:41;101053.38;;;-1.08;100.00
58622;BME280;44389;51.578;5.456;2022-12-11T01:11:09;101060.09;;;-1.08;100.00
58622;BME280;44389;51.578;5.456;2022-12-11T01:13:35;101062.09;;;-1.04;100.00
58622;BME280;44389;51.578;5.456;2022-12-11T01:16:05;101053.38;;;-1.08;100.00
58622;BME280;44389;51.578;5.456;2022-12-11T01:18:31;101055.38;;;-1.04;100.00
58622;BME280;44389;51.578;5.456;2022-12-11T01:20:56;101057.03;;;-1.04;100.00
58622;BME280;44389;51.578;5.456;2022-12-11T01:23:21;101059.56;;;-1.04;100.00
58622;BME280;44389;51.578;5.456;2022-12-11T01:25:46;101056.41;;;-1.02;100.00
58622;BME280;44389;51.578;5.456;2022-12-11T01:28:12;101061.47;;;-1.02;100.00
58622;BME280;44389;51.578;5.456;2022-12-11T01:30:40;101064.00;;;-1.02;100.00
58622;BME280;44389;51.578;5.456;2022-12-11T01:33:06;101067.28;;;-1.03;100.00
58622;BME280;44389;51.578;5.456;2022-12-11T01:35:32;101067.50;;;-1.00;100.00
58622;BME280;44389;51.578;5.456;2022-12-11T01:37:58;101062.44;;;-1.00;100.00
58622;BME280;44389;51.578;5.456;2022-12-11T01:40:23;101064.97;;;-1.00;100.00
58622;BME280;44389;51.578;5.456;2022-12-11T01:42:49;101060.94;;;-0.97;100.00
58622;BME280;44389;51.578;5.456;2022-12-11T01:47:46;101058.63;;;-0.94;100.00
58622;BME280;44389;51.578;5.456;2022-12-11T01:50:11;101054.47;;;-0.94;100.00
58622;BME280;44389;51.578;5.456;2022-12-11T01:52:37;101054.59;;;-0.92;100.00
58622;BME280;44389;51.578;5.456;2022-12-11T01:55:04;101053.84;;;-0.91;100.00
58622;BME280;44389;51.578;5.456;2022-12-11T01:57:30;101048.78;;;-0.91;100.00
58622;BME280;44389;51.578;5.456;2022-12-11T01:59:55;101054.69;;;-0.91;100.00
58622;BME280;44389;51.578;5.456;2022-12-11T02:02:24;101048.78;;;-0.91;100.00
58622;BME280;44389;51.578;5.456;2022-12-11T02:04:51;101048.13;;;-0.89;100.00
58622;BME280;44389;51.578;5.456;2022-12-11T02:07:17;101045.59;;;-0.89;100.00
58622;BME280;44389;51.578;5.456;2022-12-11T02:09:44;101048.88;;;-0.90;100.00
58622;BME280;44389;51.578;5.456;2022-12-11T02:17:46;101040.66;;;-0.87;100.00
58622;BME280;44389;51.578;5.456;2022-12-11T02:20:47;101045.94;;;-0.84;100.00
58622;BME280;44389;51.578;5.456;2022-12-11T02:23:39;101056.06;;;-0.84;100.00
58622;BME280;44389;51.578;5.456;2022-12-11T02:29:06;101042.44;;;-0.86;100.00
58622;BME280;44389;51.578;5.456;2022-12-11T02:31:44;101048.47;;;-0.84;100.00
58622;BME280;44389;51.578;5.456;2022-12-11T02:34:21;101044.19;;;-0.85;100.00
58622;BME280;44389;51.578;5.456;2022-12-11T02:36:56;101045.94;;;-0.84;100.00
58622;BME280;44389;51.578;5.456;2022-12-11T02:39:23;101046.84;;;-0.84;100.00
58622;BME280;44389;51.578;5.456;2022-12-11T02:41:51;101039.38;;;-0.82;100.00
58622;BME280;44389;51.578;5.456;2022-12-11T02:44:28;101048.72;;;-0.81;100.00
58622;BME280;44389;51.578;5.456;2022-12-11T02:46:55;101040.13;;;-0.83;100.00
58622;BME280;44389;51.578;5.456;2022-12-11T02:49:22;101044.44;;;-0.82;100.00
58622;BME280;44389;51.578;5.456;2022-12-11T02:51:49;101039.38;;;-0.82;100.00
58622;BME280;44389;51.578;5.456;2022-12-11T02:54:24;101038.34;;;-0.84;100.00
58622;BME280;44389;51.578;5.456;2022-12-11T02:56:57;101034.19;;;-0.84;100.00
58622;BME280;44389;51.578;5.456;2022-12-11T02:59:37;101041.13;;;-0.81;100.00
58622;BME280;44389;51.578;5.456;2022-12-11T03:02:04;101033.28;;;-0.84;100.00
58622;BME280;44389;51.578;5.456;2022-12-11T03:04:31;101030.75;;;-0.84;100.00
58622;BME280;44389;51.578;5.456;2022-12-11T03:07:02;101024.06;;;-0.84;100.00
58622;BME280;44389;51.578;5.456;2022-12-11T03:09:41;101028.50;;;-0.81;100.00
58622;BME280;44389;51.578;5.456;2022-12-11T03:12:09;101018.25;;;-0.82;100.00
58622;BME280;44389;51.578;5.456;2022-12-11T03:14:37;101014.16;;;-0.80;100.00
58622;BME280;44389;51.578;5.456;2022-12-11T03:17:22;101016.06;;;-0.78;100.00
58622;BME280;44389;51.578;5.456;2022-12-11T03:20:01;101010.78;;;-0.81;100.00
58622;BME280;44389;51.578;5.456;2022-12-11T03:22:36;101014.06;;;-0.82;100.00
58622;BME280;44389;51.578;5.456;2022-12-11T03:25:08;101007.22;;;-0.83;100.00
58622;BME280;44389;51.578;5.456;2022-12-11T03:27:44;101005.72;;;-0.81;100.00
58622;BME280;44389;51.578;5.456;2022-12-11T03:30:17;101018.38;;;-0.81;100.00
58622;BME280;44389;51.578;5.456;2022-12-11T03:32:57;101007.22;;;-0.83;100.00
58622;BME280;44389;51.578;5.456;2022-12-11T03:35:35;101011.31;;;-0.85;100.00
58622;BME280;44389;51.578;5.456;2022-12-11T03:38:10;101014.81;;;-0.83;100.00
58622;BME280;44389;51.578;5.456;2022-12-11T03:40:39;101014.72;;;-0.85;100.00
58622;BME280;44389;51.578;5.456;2022-12-11T03:43:07;101018.00;;;-0.86;100.00
58622;BME280;44389;51.578;5.456;2022-12-11T03:45:36;101021.44;;;-0.85;100.00
58622;BME280;44389;51.578;5.456;2022-12-11T03:48:03;101012.94;;;-0.86;100.00
58622;BME280;44389;51.578;5.456;2022-12-11T03:50:30;101020.41;;;-0.87;100.00
58622;BME280;44389;51.578;5.456;2022-12-11T03:52:59;101011.81;;;-0.89;100.00
58622;BME280;44389;51.578;5.456;2022-12-11T03:55:25;101009.22;;;-0.79;100.00
58622;BME280;44389;51.578;5.456;2022-12-11T03:57:52;101000.94;;;-0.88;100.00
58622;BME280;44389;51.578;5.456;2022-12-11T04:00:19;100999.94;;;-0.90;100.00
58622;BME280;44389;51.578;5.456;2022-12-11T04:02:45;100994.88;;;-0.90;100.00
58622;BME280;44389;51.578;5.456;2022-12-11T04:05:30;100994.88;;;-0.90;100.00
58622;BME280;44389;51.578;5.456;2022-12-11T04:07:55;100988.28;;;-0.88;100.00
58622;BME280;44389;51.578;5.456;2022-12-11T04:10:21;100985.75;;;-0.88;100.00
58622;BME280;44389;51.578;5.456;2022-12-11T04:12:46;100990.69;;;-0.90;100.00
58622;BME280;44389;51.578;5.456;2022-12-11T04:15:11;100993.22;;;-0.90;100.00
58622;BME280;44389;51.578;5.456;2022-12-11T04:17:36;100991.56;;;-0.89;100.00
58622;BME280;44389;51.578;5.456;2022-12-11T04:20:20;100996.50;;;-0.91;100.00
58622;BME280;44389;51.578;5.456;2022-12-11T04:23:08;100991.44;;;-0.91;100.00
58622;BME280;44389;51.578;5.456;2022-12-11T04:25:53;100990.47;;;-0.93;100.00
58622;BME280;44389;51.578;5.456;2022-12-11T04:28:19;100993.88;;;-0.92;100.00
58622;BME280;44389;51.578;5.456;2022-12-11T04:30:48;100993.88;;;-0.92;100.00
58622;BME280;44389;51.578;5.456;2022-12-11T04:33:13;100993.09;;;-0.91;100.00
58622;BME280;44389;51.578;5.456;2022-12-11T04:35:38;100988.28;;;-0.88;100.00
58622;BME280;44389;51.578;5.456;2022-12-11T04:38:04;100988.16;;;-0.90;100.00
58622;BME280;44389;51.578;5.456;2022-12-11T04:40:29;100986.50;;;-0.89;100.00
58622;BME280;44389;51.578;5.456;2022-12-11T04:42:55;100989.03;;;-0.89;100.00
58622;BME280;44389;51.578;5.456;2022-12-11T04:45:20;100984.75;;;-0.90;100.00
58622;BME280;44389;51.578;5.456;2022-12-11T04:47:45;100986.50;;;-0.89;100.00
58622;BME280;44389;51.578;5.456;2022-12-11T04:50:12;100986.50;;;-0.89;100.00
58622;BME280;44389;51.578;5.456;2022-12-11T04:52:38;100980.69;;;-0.88;100.00
58622;BME280;44389;51.578;5.456;2022-12-11T04:55:05;100985.63;;;-0.90;100.00
58622;BME280;44389;51.578;5.456;2022-12-11T04:57:31;100982.22;;;-0.90;100.00
58622;BME280;44389;51.578;5.456;2022-12-11T04:59:56;100983.00;;;-0.91;100.00
58622;BME280;44389;51.578;5.456;2022-12-11T05:02:21;100977.94;;;-0.91;100.00
58622;BME280;44389;51.578;5.456;2022-12-11T05:04:47;100978.78;;;-0.91;100.00
58622;BME280;44389;51.578;5.456;2022-12-11T05:07:12;100978.78;;;-0.91;100.00
58622;BME280;44389;51.578;5.456;2022-12-11T05:09:37;100974.75;;;-0.89;100.00
58622;BME280;44389;51.578;5.456;2022-12-11T05:12:02;100982.34;;;-0.89;100.00
58622;BME280;44389;51.578;5.456;2022-12-11T05:14:28;100984.13;;;-0.88;100.00
58622;BME280;44389;51.578;5.456;2022-12-11T05:16:56;100979.94;;;-0.87;100.00
58622;BME280;44389;51.578;5.456;2022-12-11T05:19:22;100983.31;;;-0.87;100.00
58622;BME280;44389;51.578;5.456;2022-12-11T05:21:47;100990.75;;;-0.78;100.00
58622;BME280;44389;51.578;5.456;2022-12-11T05:24:13;100980.16;;;-0.84;100.00
58622;BME280;44389;51.578;5.456;2022-12-11T05:26:38;100980.78;;;-0.87;100.00
58622;BME280;44389;51.578;5.456;2022-12-11T05:29:04;100980.78;;;-0.87;100.00
58622;BME280;44389;51.578;5.456;2022-12-11T05:31:29;100975.34;;;-0.81;100.00
58622;BME280;44389;51.578;5.456;2022-12-11T05:33:54;100973.56;;;-0.82;100.00
58622;BME280;44389;51.578;5.456;2022-12-11T05:36:26;100972.69;;;-0.82;100.00
58622;BME280;44389;51.578;5.456;2022-12-11T05:38:52;100969.53;;;-0.80;100.00
58622;BME280;44389;51.578;5.456;2022-12-11T05:41:21;100962.69;;;-0.81;100.00
58622;BME280;44389;51.578;5.456;2022-12-11T05:43:47;100964.31;;;-0.81;100.00
58622;BME280;44389;51.578;5.456;2022-12-11T05:46:21;100965.22;;;-0.81;100.00
58622;BME280;44389;51.578;5.456;2022-12-11T05:48:48;100970.81;;;-0.85;100.00
58622;BME280;44389;51.578;5.456;2022-12-11T05:51:15;100970.81;;;-0.85;100.00
58622;BME280;44389;51.578;5.456;2022-12-11T05:53:41;100974.88;;;-0.87;100.00
58622;BME280;44389;51.578;5.456;2022-12-11T05:56:10;100974.88;;;-0.87;100.00
58622;BME280;44389;51.578;5.456;2022-12-11T05:58:37;100973.34;;;-0.85;100.00
58622;BME280;44389;51.578;5.456;2022-12-11T06:01:11;100980.03;;;-0.86;100.00
58622;BME280;44389;51.578;5.456;2022-12-11T06:03:37;100984.34;;;-0.85;100.00
58622;BME280;44389;51.578;5.456;2022-12-11T06:06:04;100980.94;;;-0.85;100.00
58622;BME280;44389;51.578;5.456;2022-12-11T06:08:30;100978.41;;;-0.85;100.00
58622;BME280;44389;51.578;5.456;2022-12-11T06:10:55;100981.81;;;-0.85;100.00
58622;BME280;44389;51.578;5.456;2022-12-11T06:13:21;100983.47;;;-0.85;100.00
58622;BME280;44389;51.578;5.456;2022-12-11T06:15:46;100989.63;;;-0.81;100.00
58622;BME280;44389;51.578;5.456;2022-12-11T06:18:11;100976.84;;;-0.83;100.00
58622;BME280;44389;51.578;5.456;2022-12-11T06:20:37;100981.91;;;-0.83;100.00
58622;BME280;44389;51.578;5.456;2022-12-11T06:23:02;100980.63;;;-0.78;100.00
58622;BME280;44389;51.578;5.456;2022-12-11T06:25:28;100980.63;;;-0.78;100.00
58622;BME280;44389;51.578;5.456;2022-12-11T06:27:54;100977.81;;;-0.71;100.00
58622;BME280;44389;51.578;5.456;2022-12-11T06:30:20;100975.56;;;-0.78;100.00
58622;BME280;44389;51.578;5.456;2022-12-11T06:32:45;100976.47;;;-0.77;100.00
58622;BME280;44389;51.578;5.456;2022-12-11T06:35:10;100979.88;;;-0.77;100.00
58622;BME280;44389;51.578;5.456;2022-12-11T06:37:37;100976.47;;;-0.77;100.00
58622;BME280;44389;51.578;5.456;2022-12-11T06:40:04;100973.16;;;-0.76;100.00
58622;BME280;44389;51.578;5.456;2022-12-11T06:42:30;100969.00;;;-0.76;100.00
58622;BME280;44389;51.578;5.456;2022-12-11T06:44:55;100972.50;;;-0.74;100.00
58622;BME280;44389;51.578;5.456;2022-12-11T06:47:27;100972.97;;;-0.68;100.00
58622;BME280;44389;51.578;5.456;2022-12-11T06:49:53;100972.13;;;-0.68;100.00
58622;BME280;44389;51.578;5.456;2022-12-11T06:52:19;100971.22;;;-0.69;100.00
58622;BME280;44389;51.578;5.456;2022-12-11T06:54:44;100967.91;;;-0.68;100.00
58622;BME280;44389;51.578;5.456;2022-12-11T06:57:10;100965.75;;;-0.63;100.00
58622;BME280;44389;51.578;5.456;2022-12-11T06:59:35;100965.50;;;-0.66;100.00
58622;BME280;44389;51.578;5.456;2022-12-11T07:02:01;100961.09;;;-0.69;100.00
58622;BME280;44389;51.578;5.456;2022-12-11T07:04:27;100964.84;;;-0.63;100.00
58622;BME280;44389;51.578;5.456;2022-12-11T07:06:54;100967.28;;;-0.65;100.00
58622;BME280;44389;51.578;5.456;2022-12-11T07:09:19;100966.41;;;-0.65;100.00
58622;BME280;44389;51.578;5.456;2022-12-11T07:11:51;100966.50;;;-0.64;100.00
58622;BME280;44389;51.578;5.456;2022-12-11T07:14:17;100971.47;;;-0.65;100.00
58622;BME280;44389;51.578;5.456;2022-12-11T07:16:42;100976.63;;;-0.64;100.00
58622;BME280;44389;51.578;5.456;2022-12-11T07:19:07;100984.13;;;-0.65;100.00
58622;BME280;44389;51.578;5.456;2022-12-11T07:21:33;100979.06;;;-0.65;100.00
58622;BME280;44389;51.578;5.456;2022-12-11T07:23:59;100986.66;;;-0.65;100.00
58622;BME280;44389;51.578;5.456;2022-12-11T07:26:24;100987.63;;;-0.63;100.00
58622;BME280;44389;51.578;5.456;2022-12-11T07:28:49;100991.06;;;-0.63;100.00
58622;BME280;44389;51.578;5.456;2022-12-11T07:31:21;100998.53;;;-0.64;100.00
58622;BME280;44389;51.578;5.456;2022-12-11T07:33:52;101003.59;;;-0.64;100.00
58622;BME280;44389;51.578;5.456;2022-12-11T07:36:17;100999.41;;;-0.64;100.00
58622;BME280;44389;51.578;5.456;2022-12-11T07:38:42;101000.44;;;-0.62;100.00
58622;BME280;44389;51.578;5.456;2022-12-11T07:41:11;100997.75;;;-0.63;100.00
58622;BME280;44389;51.578;5.456;2022-12-11T07:43:36;101000.28;;;-0.63;100.00
58622;BME280;44389;51.578;5.456;2022-12-11T07:46:11;100986.13;;;-0.61;100.00
58622;BME280;44389;51.578;5.456;2022-12-11T07:48:39;100989.50;;;-0.61;100.00
58622;BME280;44389;51.578;5.456;2022-12-11T07:51:24;100991.28;;;-0.60;100.00
58622;BME280;44389;51.578;5.456;2022-12-11T07:53:54;100993.72;;;-0.61;100.00
58622;BME280;44389;51.578;5.456;2022-12-11T07:56:19;100998.00;;;-0.60;100.00
58622;BME280;44389;51.578;5.456;2022-12-11T07:58:45;100988.66;;;-0.61;100.00
58622;BME280;44389;51.578;5.456;2022-12-11T08:01:12;100987.88;;;-0.60;100.00
58622;BME280;44389;51.578;5.456;2022-12-11T08:03:38;100988.88;;;-0.58;100.00
58622;BME280;44389;51.578;5.456;2022-12-11T08:06:04;100988.75;;;-0.60;100.00
58622;BME280;44389;51.578;5.456;2022-12-11T08:08:30;100985.47;;;-0.59;100.00
58622;BME280;44389;51.578;5.456;2022-12-11T08:10:55;100992.19;;;-0.59;100.00
58622;BME280;44389;51.578;5.456;2022-12-11T08:13:20;100985.56;;;-0.57;100.00
58622;BME280;44389;51.578;5.456;2022-12-11T08:15:46;100989.88;;;-0.56;100.00
58622;BME280;44389;51.578;5.456;2022-12-11T08:18:11;100988.88;;;-0.58;100.00
58622;BME280;44389;51.578;5.456;2022-12-11T08:20:37;100983.81;;;-0.58;100.00
58622;BME280;44389;51.578;5.456;2022-12-11T08:23:03;100990.63;;;-0.57;100.00
58622;BME280;44389;51.578;5.456;2022-12-11T08:25:28;100988.22;;;-0.56;100.00
58622;BME280;44389;51.578;5.456;2022-12-11T08:27:54;100987.56;;;-0.53;100.00
58622;BME280;44389;51.578;5.456;2022-12-11T08:30:19;100991.75;;;-0.54;100.00
58622;BME280;44389;51.578;5.456;2022-12-11T08:32:44;100991.13;;;-0.51;100.00
58622;BME280;44389;51.578;5.456;2022-12-11T08:35:09;100992.78;;;-0.52;100.00
58622;BME280;44389;51.578;5.456;2022-12-11T08:37:35;100997.69;;;-0.53;100.00
58622;BME280;44389;51.578;5.456;2022-12-11T08:40:00;100996.06;;;-0.53;100.00
58622;BME280;44389;51.578;5.456;2022-12-11T08:42:26;100997.69;;;-0.53;100.00
58622;BME280;44389;51.578;5.456;2022-12-11T08:44:51;101001.25;;;-0.51;100.00
58622;BME280;44389;51.578;5.456;2022-12-11T08:47:16;100993.66;;;-0.51;100.00
58622;BME280;44389;51.578;5.456;2022-12-11T08:49:42;100993.66;;;-0.51;100.00
58622;BME280;44389;51.578;5.456;2022-12-11T08:52:07;100990.25;;;-0.52;100.00
58622;BME280;44389;51.578;5.456;2022-12-11T08:54:32;100987.81;;;-0.50;100.00
58622;BME280;44389;51.578;5.456;2022-12-11T08:56:58;100986.28;;;-0.48;100.00
58622;BME280;44389;51.578;5.456;2022-12-11T08:59:23;100977.91;;;-0.47;100.00
58622;BME280;44389;51.578;5.456;2022-12-11T09:01:50;100982.09;;;-0.47;100.00
58622;BME280;44389;51.578;5.456;2022-12-11T09:04:15;100980.34;;;-0.48;100.00
58622;BME280;44389;51.578;5.456;2022-12-11T09:06:40;100980.44;;;-0.47;100.00
58622;BME280;44389;51.578;5.456;2022-12-11T09:09:05;100983.75;;;-0.48;100.00
58622;BME280;44389;51.578;5.456;2022-12-11T09:11:33;100979.69;;;-0.46;100.00
58622;BME280;44389;51.578;5.456;2022-12-11T09:13:59;100974.63;;;-0.46;100.00
58622;BME280;44389;51.578;5.456;2022-12-11T09:16:26;100979.69;;;-0.46;100.00
58622;BME280;44389;51.578;5.456;2022-12-11T09:18:53;100973.75;;;-0.46;100.00
58622;BME280;44389;51.578;5.456;2022-12-11T09:21:21;100975.38;;;-0.47;100.00
58622;BME280;44389;51.578;5.456;2022-12-11T09:23:47;100977.84;;;-0.37;100.00
58622;BME280;44389;51.578;5.456;2022-12-11T09:26:15;100984.88;;;-0.44;100.00
58622;BME280;44389;51.578;5.456;2022-12-11T09:28:42;100984.75;;;-0.46;100.00
58622;BME280;44389;51.578;5.456;2022-12-11T09:31:09;100979.91;;;-0.43;100.00
58622;BME280;44389;51.578;5.456;2022-12-11T09:33:35;100977.94;;;-0.35;100.00
58622;BME280;44389;51.578;5.456;2022-12-11T09:36:01;100976.63;;;-0.42;100.00
58622;BME280;44389;51.578;5.456;2022-12-11T09:38:28;100976.63;;;-0.42;100.00
58622;BME280;44389;51.578;5.456;2022-12-11T09:40:54;100979.16;;;-0.42;100.00
58622;BME280;44389;51.578;5.456;2022-12-11T09:46:23;100983.22;;;-0.44;100.00
58622;BME280;44389;51.578;5.456;2022-12-11T09:48:49;100974.19;;;-0.40;100.00
58622;BME280;44389;51.578;5.456;2022-12-11T09:53:55;100978.09;;;-0.34;100.00
58622;BME280;44389;51.578;5.456;2022-12-11T09:56:44;100978.09;;;-0.34;100.00
58622;BME280;44389;51.578;5.456;2022-12-11T10:10:05;100972.97;;;-0.23;100.00
58622;BME280;44389;51.578;5.456;2022-12-11T10:15:36;100968.41;;;-0.27;100.00
58622;BME280;44389;51.578;5.456;2022-12-11T10:18:04;100962.69;;;-0.25;100.00
58622;BME280;44389;51.578;5.456;2022-12-11T10:20:35;100958.63;;;-0.23;100.00
58622;BME280;44389;51.578;5.456;2022-12-11T10:23:06;100957.97;;;-0.20;100.00
58622;BME280;44389;51.578;5.456;2022-12-11T10:25:39;100959.50;;;-0.22;100.00
58622;BME280;44389;51.578;5.456;2022-12-11T10:28:15;100959.75;;;-0.19;100.00
58622;BME280;44389;51.578;5.456;2022-12-11T10:33:27;100965.50;;;-0.10;100.00
58622;BME280;44389;51.578;5.456;2022-12-11T10:35:57;100956.13;;;-0.11;100.00
58622;BME280;44389;51.578;5.456;2022-12-11T10:38:29;100957.78;;;-0.11;100.00
58622;BME280;44389;51.578;5.456;2022-12-11T10:41:00;100960.22;;;-0.13;100.00
58622;BME280;44389;51.578;5.456;2022-12-11T10:43:36;100948.06;;;-0.17;100.00
58622;BME280;44389;51.578;5.456;2022-12-11T10:46:04;100953.00;;;-0.19;100.00
58622;BME280;44389;51.578;5.456;2022-12-11T10:48:29;100950.72;;;-0.15;100.00
58622;BME280;44389;51.578;5.456;2022-12-11T10:50:58;100949.81;;;-0.16;100.00
58622;BME280;44389;51.578;5.456;2022-12-11T10:53:24;100953.38;;;-0.14;100.00
58622;BME280;44389;51.578;5.456;2022-12-11T10:55:50;100943.66;;;-0.20;100.00
58622;BME280;44389;51.578;5.456;2022-12-11T10:58:22;100954.31;;;-0.24;100.00
58622;BME280;44389;51.578;5.456;2022-12-11T11:01:18;100948.59;;;-0.21;100.00
58622;BME280;44389;51.578;5.456;2022-12-11T11:06:42;100943.53;;;-0.21;100.00
58622;BME280;44389;51.578;5.456;2022-12-11T11:09:33;100938.56;;;-0.20;100.00
58622;BME280;44389;51.578;5.456;2022-12-11T11:11:59;100932.66;;;-0.20;100.00
58622;BME280;44389;51.578;5.456;2022-12-11T11:14:25;100933.09;;;-0.14;100.00
58622;BME280;44389;51.578;5.456;2022-12-11T11:16:53;100936.94;;;-0.19;100.00
58622;BME280;44389;51.578;5.456;2022-12-11T11:19:29;100940.03;;;-0.23;100.00
58622;BME280;44389;51.578;5.456;2022-12-11T11:21:59;100939.00;;;-0.25;100.00
58622;BME280;44389;51.578;5.456;2022-12-11T11:24:34;100942.66;;;-0.22;100.00
58622;BME280;44389;51.578;5.456;2022-12-11T11:27:01;100929.56;;;-0.16;100.00
58622;BME280;44389;51.578;5.456;2022-12-11T11:29:33;100928.16;;;-0.12;100.00
58622;BME280;44389;51.578;5.456;2022-12-11T11:32:13;100929.25;;;-0.09;100.00
58622;BME280;44389;51.578;5.456;2022-12-11T11:34:39;100932.00;;;-0.06;100.00
58622;BME280;44389;51.578;5.456;2022-12-11T11:37:22;100931.59;;;0.00;100.00
58622;BME280;44389;51.578;5.456;2022-12-11T11:39:49;100929.38;;;0.05;100.00
58622;BME280;44389;51.578;5.456;2022-12-11T11:42:25;100921.78;;;0.05;100.00
58622;BME280;44389;51.578;5.456;2022-12-11T11:45:02;100923.00;;;0.10;100.00
58622;BME280;44389;51.578;5.456;2022-12-11T11:47:57;100928.28;;;0.13;100.00
58622;BME280;44389;51.578;5.456;2022-12-11T11:50:25;100928.28;;;0.13;100.00
58622;BME280;44389;51.578;5.456;2022-12-11T11:52:59;100923.91;;;0.22;100.00
58622;BME280;44389;51.578;5.456;2022-12-11T11:58:26;100916.84;;;0.30;100.00
58622;BME280;44389;51.578;5.456;2022-12-11T12:00:55;100911.63;;;0.28;100.00
58622;BME280;44389;51.578;5.456;2022-12-11T12:03:22;100911.63;;;0.28;100.00
58622;BME280;44389;51.578;5.456;2022-12-11T12:05:53;100910.00;;;0.41;100.00
58622;BME280;44389;51.578;5.456;2022-12-11T12:11:29;100900.06;;;0.44;100.00
58622;BME280;44389;51.578;5.456;2022-12-11T12:14:12;100906.91;;;0.45;100.00
58622;BME280;44389;51.578;5.456;2022-12-11T12:16:56;100898.31;;;0.43;100.00
58622;BME280;44389;51.578;5.456;2022-12-11T12:19:44;100899.53;;;0.48;100.00
58622;BME280;44389;51.578;5.456;2022-12-11T12:30:37;100895.66;;;0.41;100.00
58622;BME280;44389;51.578;5.456;2022-12-11T12:33:23;100893.25;;;0.43;100.00
58622;BME280;44389;51.578;5.456;2022-12-11T12:36:07;100884.19;;;0.46;100.00
58622;BME280;44389;51.578;5.456;2022-12-11T12:38:42;100883.31;;;0.46;100.00
58622;BME280;44389;51.578;5.456;2022-12-11T12:41:55;100895.00;;;0.56;100.00
58622;BME280;44389;51.578;5.456;2022-12-11T12:44:23;100889.69;;;0.53;100.00
58622;BME280;44389;51.578;5.456;2022-12-11T12:46:54;100890.03;;;0.57;100.00
58622;BME280;44389;51.578;5.456;2022-12-11T12:49:45;100896.19;;;0.61;100.00
58622;BME280;44389;51.578;5.456;2022-12-11T12:52:18;100888.25;;;0.56;100.00
58622;BME280;44389;51.578;5.456;2022-12-11T12:54:47;100888.34;;;0.58;100.00
58622;BME280;44389;51.578;5.456;2022-12-11T12:57:34;100883.72;;;0.64;100.00
58622;BME280;44389;51.578;5.456;2022-12-11T13:00:01;100881.09;;;0.62;100.00
58622;BME280;44389;51.578;5.456;2022-12-11T13:02:28;100883.06;;;0.67;100.00
58622;BME280;44389;51.578;5.456;2022-12-11T13:04:59;100884.28;;;0.60;100.00
58622;BME280;44389;51.578;5.456;2022-12-11T13:07:29;100878.88;;;0.55;100.00
58622;BME280;44389;51.578;5.456;2022-12-11T13:10:27;100872.47;;;0.60;100.00
58622;BME280;44389;51.578;5.456;2022-12-11T13:12:53;100877.34;;;0.57;100.00
58622;BME280;44389;51.578;5.456;2022-12-11T13:15:33;100883.75;;;0.52;100.00
58622;BME280;44389;51.578;5.456;2022-12-11T13:18:01;100874.03;;;0.46;100.00
58622;BME280;44389;51.578;5.456;2022-12-11T13:20:30;100874.50;;;0.41;100.00
58622;BME280;44389;51.578;5.456;2022-12-11T13:23:25;100879.56;;;0.41;100.00
58622;BME280;44389;51.578;5.456;2022-12-11T13:25:59;100882.66;;;0.37;100.00
58622;BME280;44389;51.578;5.456;2022-12-11T13:28:29;100877.25;;;0.32;100.00
58622;BME280;44389;51.578;5.456;2022-12-11T13:33:24;100880.44;;;0.29;100.00
58622;BME280;44389;51.578;5.456;2022-12-11T13:36:27;100889.28;;;0.35;100.00
58622;BME280;44389;51.578;5.456;2022-12-11T13:38:59;100890.59;;;0.29;100.00
58622;BME280;44389;51.578;5.456;2022-12-11T13:41:26;100887.28;;;0.30;100.00
58622;BME280;44389;51.578;5.456;2022-12-11T13:43:52;100891.34;;;0.28;100.00